sensor_id;sensor_type;location;lat;lon;timestamp;pressure;altitude;pressure_sealevel;temperature;humidity
22283;BME280;11310;51.528;21.204;2023-02-11T00:01:34;101412.88;;;2.35;100.00
22283;BME280;11310;51.528;21.204;2023-02-11T00:04:04;101415.47;;;2.36;100.00
22283;BME280;11310;51.528;21.204;2023-02-11T00:06:34;101407.72;;;2.36;100.00
22283;BME280;11310;51.528;21.204;2023-02-11T00:09:03;101415.47;;;2.36;100.00
22283;BME280;11310;51.528;21.204;2023-02-11T00:11:33;101417.22;;;2.36;100.00
22283;BME280;11310;51.528;21.204;2023-02-11T00:14:03;101418.91;;;2.35;100.00
22283;BME280;11310;51.528;21.204;2023-02-11T00:16:36;101415.44;;;2.35;100.00
22283;BME280;11310;51.528;21.204;2023-02-11T00:19:06;101401.69;;;2.36;100.00
22283;BME280;11310;51.528;21.204;2023-02-11T00:21:36;101415.50;;;2.38;100.00
22283;BME280;11310;51.528;21.204;2023-02-11T00:24:06;101410.28;;;2.36;100.00
22283;BME280;11310;51.528;21.204;2023-02-11T00:26:35;101410.28;;;2.36;100.00
22283;BME280;11310;51.528;21.204;2023-02-11T00:29:04;101409.44;;;2.39;100.00
22283;BME280;11310;51.528;21.204;2023-02-11T00:31:33;101416.38;;;2.38;100.00
22283;BME280;11310;51.528;21.204;2023-02-11T00:34:06;101406.84;;;2.37;100.00
22283;BME280;11310;51.528;21.204;2023-02-11T00:36:35;101398.22;;;2.37;100.00
22283;BME280;11310;51.528;21.204;2023-02-11T00:39:06;101397.38;;;2.38;100.00
22283;BME280;11310;51.528;21.204;2023-02-11T00:41:35;101394.78;;;2.38;100.00
22283;BME280;11310;51.528;21.204;2023-02-11T00:44:04;101385.28;;;2.40;100.00
22283;BME280;11310;51.528;21.204;2023-02-11T00:46:34;101392.22;;;2.41;100.00
22283;BME280;11310;51.528;21.204;2023-02-11T00:49:02;101383.56;;;2.40;100.00
22283;BME280;11310;51.528;21.204;2023-02-11T00:51:32;101381.00;;;2.40;100.00
22283;BME280;11310;51.528;21.204;2023-02-11T00:54:03;101373.25;;;2.42;100.00
22283;BME280;11310;51.528;21.204;2023-02-11T00:56:32;101365.44;;;2.39;100.00
22283;BME280;11310;51.528;21.204;2023-02-11T00:59:01;101352.53;;;2.43;100.00
22283;BME280;11310;51.528;21.204;2023-02-11T01:01:29;101351.69;;;2.46;100.00
22283;BME280;11310;51.528;21.204;2023-02-11T01:03:58;101349.09;;;2.46;100.00
22283;BME280;11310;51.528;21.204;2023-02-11T01:06:26;101351.69;;;2.46;100.00
22283;BME280;11310;51.528;21.204;2023-02-11T01:08:56;101339.59;;;2.46;100.00
22283;BME280;11310;51.528;21.204;2023-02-11T01:11:24;101346.53;;;2.47;100.00
22283;BME280;11310;51.528;21.204;2023-02-11T01:13:53;101333.59;;;2.47;100.00
22283;BME280;11310;51.528;21.204;2023-02-11T01:16:22;101326.69;;;2.49;100.00
22283;BME280;11310;51.528;21.204;2023-02-11T01:18:52;101329.28;;;2.49;100.00
22283;BME280;11310;51.528;21.204;2023-02-11T01:21:21;101320.63;;;2.49;100.00
22283;BME280;11310;51.528;21.204;2023-02-11T01:23:50;101319.78;;;2.48;100.00
22283;BME280;11310;51.528;21.204;2023-02-11T01:26:21;101317.19;;;2.48;100.00
22283;BME280;11310;51.528;21.204;2023-02-11T01:28:50;101317.22;;;2.50;100.00
22283;BME280;11310;51.528;21.204;2023-02-11T01:31:20;101316.34;;;2.51;100.00
22283;BME280;11310;51.528;21.204;2023-02-11T01:33:49;101317.19;;;2.51;100.00
22283;BME280;11310;51.528;21.204;2023-02-11T01:36:19;101299.94;;;2.52;100.00
22283;BME280;11310;51.528;21.204;2023-02-11T01:38:55;101299.94;;;2.52;100.00
22283;BME280;11310;51.528;21.204;2023-02-11T01:41:28;101287.00;;;2.52;100.00
22283;BME280;11310;51.528;21.204;2023-02-11T01:43:57;101282.66;;;2.54;100.00
22283;BME280;11310;51.528;21.204;2023-02-11T01:46:33;101264.53;;;2.54;100.00
22283;BME280;11310;51.528;21.204;2023-02-11T01:49:07;101260.22;;;2.51;100.00
22283;BME280;11310;51.528;21.204;2023-02-11T01:51:40;101246.41;;;2.49;100.00
22283;BME280;11310;51.528;21.204;2023-02-11T01:54:18;101234.28;;;2.44;100.00
22283;BME280;11310;51.528;21.204;2023-02-11T01:57:15;101227.34;;;2.41;100.00
22283;BME280;11310;51.528;21.204;2023-02-11T02:00:09;101205.81;;;2.41;100.00
22283;BME280;11310;51.528;21.204;2023-02-11T02:02:49;101195.44;;;2.41;100.00
22283;BME280;11310;51.528;21.204;2023-02-11T02:05:27;101182.47;;;2.42;100.00
22283;BME280;11310;51.528;21.204;2023-02-11T02:08:05;101189.41;;;2.43;100.00
22283;BME280;11310;51.528;21.204;2023-02-11T02:10:40;101176.44;;;2.45;100.00
22283;BME280;11310;51.528;21.204;2023-02-11T02:13:11;101172.16;;;2.45;100.00
22283;BME280;11310;51.528;21.204;2023-02-11T02:15:42;101172.13;;;2.39;100.00
22283;BME280;11310;51.528;21.204;2023-02-11T02:18:23;101160.91;;;2.36;100.00
22283;BME280;11310;51.528;21.204;2023-02-11T02:21:21;101157.44;;;2.37;100.00
22283;BME280;11310;51.528;21.204;2023-02-11T02:27:09;101155.72;;;2.39;100.00
22283;BME280;11310;51.528;21.204;2023-02-11T02:33:08;101134.13;;;2.40;100.00
22283;BME280;11310;51.528;21.204;2023-02-11T02:35:54;101128.13;;;2.39;100.00
22283;BME280;11310;51.528;21.204;2023-02-11T02:38:29;101135.88;;;2.44;100.00
22283;BME280;11310;51.528;21.204;2023-02-11T02:41:02;101135.03;;;2.46;100.00
22283;BME280;11310;51.528;21.204;2023-02-11T02:43:31;101136.78;;;2.46;100.00
22283;BME280;11310;51.528;21.204;2023-02-11T02:46:11;101129.00;;;2.44;100.00
22283;BME280;11310;51.528;21.204;2023-02-11T02:48:41;101123.81;;;2.49;100.00
22283;BME280;11310;51.528;21.204;2023-02-11T02:51:20;101131.59;;;2.49;100.00
22283;BME280;11310;51.528;21.204;2023-02-11T02:54:03;101144.56;;;2.52;100.00
22283;BME280;11310;51.528;21.204;2023-02-11T02:56:39;101134.25;;;2.56;100.00
22283;BME280;11310;51.528;21.204;2023-02-11T02:59:21;101131.63;;;2.55;100.00
22283;BME280;11310;51.528;21.204;2023-02-11T03:02:04;101118.69;;;2.53;100.00
22283;BME280;11310;51.528;21.204;2023-02-11T03:04:42;101138.53;;;2.56;100.00
22283;BME280;11310;51.528;21.204;2023-02-11T03:07:19;101117.81;;;2.56;100.00
22283;BME280;11310;51.528;21.204;2023-02-11T03:09:55;101100.56;;;2.55;100.00
22283;BME280;11310;51.528;21.204;2023-02-11T03:12:27;101099.69;;;2.54;100.00
22283;BME280;11310;51.528;21.204;2023-02-11T03:14:58;101099.66;;;2.51;100.00
22283;BME280;11310;51.528;21.204;2023-02-11T03:17:29;101089.28;;;2.51;100.00
22283;BME280;11310;51.528;21.204;2023-02-11T03:20:02;101094.50;;;2.50;100.00
22283;BME280;11310;51.528;21.204;2023-02-11T03:22:35;101092.78;;;2.55;100.00
22283;BME280;11310;51.528;21.204;2023-02-11T03:25:07;101089.31;;;2.54;100.00
22283;BME280;11310;51.528;21.204;2023-02-11T03:27:40;101100.56;;;2.55;100.00
22283;BME280;11310;51.528;21.204;2023-02-11T03:30:16;101095.38;;;2.55;100.00
22283;BME280;11310;51.528;21.204;2023-02-11T03:32:50;101089.34;;;2.59;100.00
22283;BME280;11310;51.528;21.204;2023-02-11T03:35:25;101103.16;;;2.59;100.00
22283;BME280;11310;51.528;21.204;2023-02-11T03:37:59;101097.97;;;2.59;100.00
22283;BME280;11310;51.528;21.204;2023-02-11T03:40:31;101081.59;;;2.59;100.00
22283;BME280;11310;51.528;21.204;2023-02-11T03:43:07;101093.69;;;2.61;100.00
22283;BME280;11310;51.528;21.204;2023-02-11T03:45:38;101104.03;;;2.60;100.00
22283;BME280;11310;51.528;21.204;2023-02-11T03:48:13;101082.44;;;2.61;100.00
22283;BME280;11310;51.528;21.204;2023-02-11T03:50:47;101069.50;;;2.61;100.00
22283;BME280;11310;51.528;21.204;2023-02-11T03:53:22;101074.66;;;2.61;100.00
22283;BME280;11310;51.528;21.204;2023-02-11T03:55:54;101078.97;;;2.62;100.00
22283;BME280;11310;51.528;21.204;2023-02-11T03:58:25;101073.81;;;2.62;100.00
22283;BME280;11310;51.528;21.204;2023-02-11T04:00:54;101075.53;;;2.61;100.00
22283;BME280;11310;51.528;21.204;2023-02-11T04:03:23;101065.19;;;2.60;100.00
22283;BME280;11310;51.528;21.204;2023-02-11T04:05:56;101053.09;;;2.59;100.00
22283;BME280;11310;51.528;21.204;2023-02-11T04:08:25;101041.84;;;2.57;100.00
22283;BME280;11310;51.528;21.204;2023-02-11T04:10:54;101032.34;;;2.54;100.00
22283;BME280;11310;51.528;21.204;2023-02-11T04:13:24;101023.72;;;2.51;100.00
22283;BME280;11310;51.528;21.204;2023-02-11T04:15:54;101023.72;;;2.51;100.00
22283;BME280;11310;51.528;21.204;2023-02-11T04:18:24;101036.66;;;2.51;100.00
22283;BME280;11310;51.528;21.204;2023-02-11T04:20:55;101028.91;;;2.51;100.00
22283;BME280;11310;51.528;21.204;2023-02-11T04:23:25;101009.03;;;2.53;100.00
22283;BME280;11310;51.528;21.204;2023-02-11T04:25:55;101005.59;;;2.51;100.00
22283;BME280;11310;51.528;21.204;2023-02-11T04:28:29;101002.13;;;2.52;100.00
22283;BME280;11310;51.528;21.204;2023-02-11T04:31:05;100996.94;;;2.49;100.00
22283;BME280;11310;51.528;21.204;2023-02-11T04:33:34;100987.44;;;2.48;100.00
22283;BME280;11310;51.528;21.204;2023-02-11T04:36:06;100969.31;;;2.48;100.00
22283;BME280;11310;51.528;21.204;2023-02-11T04:38:35;100959.84;;;2.47;100.00
22283;BME280;11310;51.528;21.204;2023-02-11T04:41:05;100952.06;;;2.44;100.00
22283;BME280;11310;51.528;21.204;2023-02-11T04:43:34;100949.47;;;2.44;100.00
22283;BME280;11310;51.528;21.204;2023-02-11T04:46:04;100946.03;;;2.42;100.00
22283;BME280;11310;51.528;21.204;2023-02-11T04:48:33;100944.28;;;2.39;100.00
22283;BME280;11310;51.528;21.204;2023-02-11T04:51:05;100950.31;;;2.40;100.00
22283;BME280;11310;51.528;21.204;2023-02-11T04:53:34;100936.53;;;2.38;100.00
22283;BME280;11310;51.528;21.204;2023-02-11T04:56:03;100932.22;;;2.37;100.00
22283;BME280;11310;51.528;21.204;2023-02-11T04:58:33;100932.19;;;2.34;100.00
22283;BME280;11310;51.528;21.204;2023-02-11T05:01:05;100919.25;;;2.31;100.00
22283;BME280;11310;51.528;21.204;2023-02-11T05:03:37;100914.06;;;2.28;100.00
22283;BME280;11310;51.528;21.204;2023-02-11T05:06:09;100905.44;;;2.26;100.00
22283;BME280;11310;51.528;21.204;2023-02-11T05:08:38;100912.31;;;2.21;100.00
22283;BME280;11310;51.528;21.204;2023-02-11T05:11:14;100895.06;;;2.20;100.00
22283;BME280;11310;51.528;21.204;2023-02-11T05:13:45;100898.50;;;2.22;100.00
22283;BME280;11310;51.528;21.204;2023-02-11T05:16:18;100896.81;;;2.24;100.00
22283;BME280;11310;51.528;21.204;2023-02-11T05:18:48;100895.09;;;2.23;100.00
22283;BME280;11310;51.528;21.204;2023-02-11T05:21:20;100902.00;;;2.24;100.00
22283;BME280;11310;51.528;21.204;2023-02-11T05:23:51;100908.03;;;2.23;100.00
22283;BME280;11310;51.528;21.204;2023-02-11T05:26:19;100889.03;;;2.21;100.00
22283;BME280;11310;51.528;21.204;2023-02-11T05:28:49;100889.91;;;2.21;100.00
22283;BME280;11310;51.528;21.204;2023-02-11T05:31:18;100879.53;;;2.17;100.00
22283;BME280;11310;51.528;21.204;2023-02-11T05:33:48;100876.97;;;2.12;100.00
22283;BME280;11310;51.528;21.204;2023-02-11T05:36:20;100865.75;;;2.09;100.00
22283;BME280;11310;51.528;21.204;2023-02-11T05:38:49;100852.78;;;2.03;100.00
22283;BME280;11310;51.528;21.204;2023-02-11T05:41:20;100850.22;;;2.00;100.00
22283;BME280;11310;51.528;21.204;2023-02-11T05:43:51;100851.91;;;1.98;100.00
22283;BME280;11310;51.528;21.204;2023-02-11T05:46:21;100860.53;;;1.97;100.00
22283;BME280;11310;51.528;21.204;2023-02-11T05:48:51;100852.78;;;1.91;100.00
22283;BME280;11310;51.528;21.204;2023-02-11T05:51:25;100863.13;;;1.91;100.00
22283;BME280;11310;51.528;21.204;2023-02-11T05:53:53;100862.25;;;1.92;100.00
22283;BME280;11310;51.528;21.204;2023-02-11T05:56:23;100851.91;;;1.92;100.00
22283;BME280;11310;51.528;21.204;2023-02-11T05:58:54;100850.19;;;1.89;100.00
22283;BME280;11310;51.528;21.204;2023-02-11T06:01:28;100853.63;;;1.87;100.00
22283;BME280;11310;51.528;21.204;2023-02-11T06:03:57;100860.50;;;1.85;100.00
22283;BME280;11310;51.528;21.204;2023-02-11T06:06:28;100854.44;;;1.78;100.00
22283;BME280;11310;51.528;21.204;2023-02-11T06:08:58;100851.88;;;1.77;100.00
22283;BME280;11310;51.528;21.204;2023-02-11T06:11:27;100837.19;;;1.76;100.00
22283;BME280;11310;51.528;21.204;2023-02-11T06:13:57;100852.75;;;1.83;100.00
22283;BME280;11310;51.528;21.204;2023-02-11T06:16:26;100839.81;;;1.88;100.00
22283;BME280;11310;51.528;21.204;2023-02-11T06:18:55;100844.16;;;1.93;100.00
22283;BME280;11310;51.528;21.204;2023-02-11T06:21:25;100842.41;;;1.95;100.00
22283;BME280;11310;51.528;21.204;2023-02-11T06:24:12;100832.94;;;1.99;100.00
22283;BME280;11310;51.528;21.204;2023-02-11T06:26:43;100830.34;;;1.99;100.00
22283;BME280;11310;51.528;21.204;2023-02-11T06:29:12;100832.06;;;2.03;100.00
22283;BME280;11310;51.528;21.204;2023-02-11T06:31:52;100832.06;;;2.03;100.00
22283;BME280;11310;51.528;21.204;2023-02-11T06:34:27;100822.59;;;2.08;100.00
22283;BME280;11310;51.528;21.204;2023-02-11T06:36:57;100826.91;;;2.06;100.00
22283;BME280;11310;51.528;21.204;2023-02-11T06:39:27;100820.88;;;2.07;100.00
22283;BME280;11310;51.528;21.204;2023-02-11T06:41:55;100816.56;;;2.04;100.00
22283;BME280;11310;51.528;21.204;2023-02-11T06:44:24;100817.44;;;2.02;100.00
22283;BME280;11310;51.528;21.204;2023-02-11T06:46:52;100815.72;;;2.01;100.00
22283;BME280;11310;51.528;21.204;2023-02-11T06:49:21;100809.69;;;2.05;100.00
22283;BME280;11310;51.528;21.204;2023-02-11T06:51:50;100824.31;;;2.12;100.00
22283;BME280;11310;51.528;21.204;2023-02-11T06:54:18;100811.41;;;2.18;100.00
22283;BME280;11310;51.528;21.204;2023-02-11T06:56:48;100790.69;;;2.21;100.00
22283;BME280;11310;51.528;21.204;2023-02-11T06:59:18;100796.75;;;2.23;99.98
22283;BME280;11310;51.528;21.204;2023-02-11T07:01:47;100791.56;;;2.23;100.00
22283;BME280;11310;51.528;21.204;2023-02-11T07:04:16;100799.34;;;2.24;100.00
22283;BME280;11310;51.528;21.204;2023-02-11T07:06:45;100788.13;;;2.27;100.00
22283;BME280;11310;51.528;21.204;2023-02-11T07:09:13;100790.69;;;2.30;99.49
22283;BME280;11310;51.528;21.204;2023-02-11T07:11:42;100788.94;;;2.33;99.58
22283;BME280;11310;51.528;21.204;2023-02-11T07:14:12;100769.13;;;2.34;99.94
22283;BME280;11310;51.528;21.204;2023-02-11T07:16:41;100783.78;;;2.39;100.00
22283;BME280;11310;51.528;21.204;2023-02-11T07:19:09;100769.97;;;2.40;99.06
22283;BME280;11310;51.528;21.204;2023-02-11T07:21:39;100768.22;;;2.42;98.75
22283;BME280;11310;51.528;21.204;2023-02-11T07:24:09;100768.22;;;2.45;99.55
22283;BME280;11310;51.528;21.204;2023-02-11T07:26:39;100763.03;;;2.51;99.70
22283;BME280;11310;51.528;21.204;2023-02-11T07:29:10;100765.63;;;2.56;99.06
22283;BME280;11310;51.528;21.204;2023-02-11T07:31:41;100762.16;;;2.60;98.61
22283;BME280;11310;51.528;21.204;2023-02-11T07:34:11;100754.41;;;2.61;98.20
22283;BME280;11310;51.528;21.204;2023-02-11T07:36:40;100753.53;;;2.64;98.40
22283;BME280;11310;51.528;21.204;2023-02-11T07:39:11;100752.63;;;2.72;98.47
22283;BME280;11310;51.528;21.204;2023-02-11T07:41:40;100756.06;;;2.80;98.12
22283;BME280;11310;51.528;21.204;2023-02-11T07:44:10;100758.63;;;2.85;98.30
22283;BME280;11310;51.528;21.204;2023-02-11T07:46:40;100746.56;;;2.84;97.96
22283;BME280;11310;51.528;21.204;2023-02-11T07:49:11;100740.50;;;2.85;98.25
22283;BME280;11310;51.528;21.204;2023-02-11T07:51:40;100734.44;;;2.86;98.05
22283;BME280;11310;51.528;21.204;2023-02-11T07:54:10;100732.72;;;2.83;98.38
22283;BME280;11310;51.528;21.204;2023-02-11T07:56:40;100732.72;;;2.83;98.32
22283;BME280;11310;51.528;21.204;2023-02-11T07:59:09;100720.66;;;2.84;98.38
22283;BME280;11310;51.528;21.204;2023-02-11T08:01:38;100735.31;;;2.88;98.90
22283;BME280;11310;51.528;21.204;2023-02-11T08:04:08;100725.78;;;2.93;98.58
22283;BME280;11310;51.528;21.204;2023-02-11T08:06:40;100717.13;;;2.97;99.58
22283;BME280;11310;51.528;21.204;2023-02-11T08:09:13;100725.75;;;3.02;98.78
22283;BME280;11310;51.528;21.204;2023-02-11T08:11:42;100719.69;;;3.04;98.54
22283;BME280;11310;51.528;21.204;2023-02-11T08:14:11;100716.22;;;3.10;98.16
22283;BME280;11310;51.528;21.204;2023-02-11T08:16:40;100730.84;;;3.17;98.37
22283;BME280;11310;51.528;21.204;2023-02-11T08:19:12;100732.56;;;3.21;98.76
22283;BME280;11310;51.528;21.204;2023-02-11T08:21:41;100734.28;;;3.25;98.37
22283;BME280;11310;51.528;21.204;2023-02-11T08:24:11;100715.25;;;3.26;98.76
22283;BME280;11310;51.528;21.204;2023-02-11T08:26:41;100723.91;;;3.25;98.71
22283;BME280;11310;51.528;21.204;2023-02-11T08:29:11;100716.97;;;3.27;98.79
22283;BME280;11310;51.528;21.204;2023-02-11T08:31:42;100725.59;;;3.32;98.21
22283;BME280;11310;51.528;21.204;2023-02-11T08:34:13;100716.06;;;3.35;97.78
22283;BME280;11310;51.528;21.204;2023-02-11T08:36:45;100716.84;;;3.45;98.37
22283;BME280;11310;51.528;21.204;2023-02-11T08:39:15;100713.38;;;3.49;97.66
22283;BME280;11310;51.528;21.204;2023-02-11T08:41:47;100716.84;;;3.51;98.06
22283;BME280;11310;51.528;21.204;2023-02-11T08:44:16;100703.81;;;3.57;97.63
22283;BME280;11310;51.528;21.204;2023-02-11T08:46:45;100695.97;;;3.63;97.75
22283;BME280;11310;51.528;21.204;2023-02-11T08:49:16;100693.31;;;3.72;97.93
22283;BME280;11310;51.528;21.204;2023-02-11T08:51:45;100696.72;;;3.81;97.28
22283;BME280;11310;51.528;21.204;2023-02-11T08:54:15;100705.31;;;3.86;96.92
22283;BME280;11310;51.528;21.204;2023-02-11T08:56:44;100703.59;;;3.85;96.74
22283;BME280;11310;51.528;21.204;2023-02-11T08:59:13;100709.63;;;3.86;96.71
22283;BME280;11310;51.528;21.204;2023-02-11T09:01:43;100699.31;;;3.80;96.90
22283;BME280;11310;51.528;21.204;2023-02-11T09:04:13;100706.28;;;3.73;97.22
22283;BME280;11310;51.528;21.204;2023-02-11T09:06:44;100703.75;;;3.67;97.26
22283;BME280;11310;51.528;21.204;2023-02-11T09:09:14;100688.19;;;3.67;97.62
22283;BME280;11310;51.528;21.204;2023-02-11T09:11:43;100697.72;;;3.64;98.15
22283;BME280;11310;51.528;21.204;2023-02-11T09:14:17;100695.16;;;3.62;98.39
22283;BME280;11310;51.528;21.204;2023-02-11T09:16:48;100710.69;;;3.64;98.09
22283;BME280;11310;51.528;21.204;2023-02-11T09:19:18;100703.69;;;3.73;98.19
22283;BME280;11310;51.528;21.204;2023-02-11T09:21:49;100694.16;;;3.77;98.73
22283;BME280;11310;51.528;21.204;2023-02-11T09:24:17;100699.31;;;3.81;97.93
22283;BME280;11310;51.528;21.204;2023-02-11T09:26:46;100694.94;;;3.85;97.51
22283;BME280;11310;51.528;21.204;2023-02-11T09:29:16;100685.41;;;3.88;98.04
22283;BME280;11310;51.528;21.204;2023-02-11T09:31:45;100675.00;;;3.93;97.80
22283;BME280;11310;51.528;21.204;2023-02-11T09:34:14;100658.59;;;3.88;98.19
22283;BME280;11310;51.528;21.204;2023-02-11T09:36:43;100653.44;;;3.83;98.76
22283;BME280;11310;51.528;21.204;2023-02-11T09:39:15;100650.91;;;3.79;99.39
22283;BME280;11310;51.528;21.204;2023-02-11T09:42:06;100642.25;;;3.78;100.00
22283;BME280;11310;51.528;21.204;2023-02-11T09:44:38;100638.75;;;3.84;99.81
22283;BME280;11310;51.528;21.204;2023-02-11T09:47:21;100634.38;;;3.86;100.00
22283;BME280;11310;51.528;21.204;2023-02-11T09:49:55;100626.50;;;3.98;100.00
22283;BME280;11310;51.528;21.204;2023-02-11T09:52:31;100623.78;;;4.08;99.93
22283;BME280;11310;51.528;21.204;2023-02-11T09:55:04;100614.25;;;4.09;99.55
22283;BME280;11310;51.528;21.204;2023-02-11T09:57:35;100595.28;;;4.04;99.62
22283;BME280;11310;51.528;21.204;2023-02-11T10:00:16;100603.88;;;4.09;100.00
22283;BME280;11310;51.528;21.204;2023-02-11T10:02:57;100596.88;;;4.17;100.00
22283;BME280;11310;51.528;21.204;2023-02-11T10:05:47;100596.84;;;4.18;100.00
22283;BME280;11310;51.528;21.204;2023-02-11T10:08:28;100605.53;;;4.17;100.00
22283;BME280;11310;51.528;21.204;2023-02-11T10:11:04;100604.66;;;4.15;100.00
22283;BME280;11310;51.528;21.204;2023-02-11T10:13:51;100591.69;;;4.14;100.00
22283;BME280;11310;51.528;21.204;2023-02-11T10:16:41;100591.78;;;4.08;100.00
22283;BME280;11310;51.528;21.204;2023-02-11T10:19:37;100591.84;;;4.02;100.00
22283;BME280;11310;51.528;21.204;2023-02-11T10:22:13;100597.94;;;3.98;100.00
22283;BME280;11310;51.528;21.204;2023-02-11T10:24:49;100593.72;;;3.89;100.00
22283;BME280;11310;51.528;21.204;2023-02-11T10:27:21;100596.34;;;3.83;100.00
22283;BME280;11310;51.528;21.204;2023-02-11T10:29:54;100596.41;;;3.79;100.00
22283;BME280;11310;51.528;21.204;2023-02-11T10:32:31;100604.22;;;3.76;100.00
22283;BME280;11310;51.528;21.204;2023-02-11T10:35:03;100599.94;;;3.72;100.00
22283;BME280;11310;51.528;21.204;2023-02-11T10:37:38;100600.78;;;3.74;100.00
22283;BME280;11310;51.528;21.204;2023-02-11T10:40:12;100593.03;;;3.71;100.00
22283;BME280;11310;51.528;21.204;2023-02-11T10:42:44;100599.09;;;3.67;100.00
22283;BME280;11310;51.528;21.204;2023-02-11T10:45:18;100615.56;;;3.63;100.00
22283;BME280;11310;51.528;21.204;2023-02-11T10:47:49;100588.88;;;3.55;100.00
22283;BME280;11310;51.528;21.204;2023-02-11T10:50:23;100581.94;;;3.54;100.00
22283;BME280;11310;51.528;21.204;2023-02-11T10:53:10;100576.72;;;3.60;100.00
22283;BME280;11310;51.528;21.204;2023-02-11T10:55:48;100564.56;;;3.65;100.00
22283;BME280;11310;51.528;21.204;2023-02-11T10:58:25;100566.28;;;3.64;100.00
22283;BME280;11310;51.528;21.204;2023-02-11T11:00:57;100567.19;;;3.59;100.00
22283;BME280;11310;51.528;21.204;2023-02-11T11:03:32;100568.13;;;3.52;100.00
22283;BME280;11310;51.528;21.204;2023-02-11T11:06:04;100570.75;;;3.49;100.00
22283;BME280;11310;51.528;21.204;2023-02-11T11:08:39;100569.03;;;3.48;100.00
22283;BME280;11310;51.528;21.204;2023-02-11T11:11:10;100534.50;;;3.43;100.00
22283;BME280;11310;51.528;21.204;2023-02-11T11:13:41;100532.78;;;3.42;100.00
22283;BME280;11310;51.528;21.204;2023-02-11T11:16:24;100532.81;;;3.40;100.00
22283;BME280;11310;51.528;21.204;2023-02-11T11:19:19;100526.81;;;3.35;100.00
22283;BME280;11310;51.528;21.204;2023-02-11T11:21:49;100519.91;;;3.31;100.00
22283;BME280;11310;51.528;21.204;2023-02-11T11:24:20;100513.03;;;3.26;100.00
22283;BME280;11310;51.528;21.204;2023-02-11T11:26:54;100522.59;;;3.24;100.00
22283;BME280;11310;51.528;21.204;2023-02-11T11:29:28;100552.88;;;3.20;100.00
22283;BME280;11310;51.528;21.204;2023-02-11T11:31:59;100546.00;;;3.15;100.00
22283;BME280;11310;51.528;21.204;2023-02-11T11:34:34;100520.09;;;3.09;100.00
22283;BME280;11310;51.528;21.204;2023-02-11T11:37:10;100525.31;;;3.07;100.00
22283;BME280;11310;51.528;21.204;2023-02-11T11:39:40;100520.16;;;3.04;100.00
22283;BME280;11310;51.528;21.204;2023-02-11T11:42:23;100526.22;;;3.03;100.00
22283;BME280;11310;51.528;21.204;2023-02-11T11:44:58;100521.94;;;2.98;100.00
22283;BME280;11310;51.528;21.204;2023-02-11T11:47:35;100517.63;;;2.95;100.00
22283;BME280;11310;51.528;21.204;2023-02-11T11:50:19;100509.84;;;2.97;100.00
22283;BME280;11310;51.528;21.204;2023-02-11T11:52:58;100489.94;;;3.02;100.00
22283;BME280;11310;51.528;21.204;2023-02-11T11:55:32;100482.16;;;3.02;100.00
22283;BME280;11310;51.528;21.204;2023-02-11T11:58:03;100478.75;;;3.00;100.00
22283;BME280;11310;51.528;21.204;2023-02-11T12:00:35;100488.25;;;2.99;100.00
22283;BME280;11310;51.528;21.204;2023-02-11T12:03:22;100503.78;;;2.99;100.00
22283;BME280;11310;51.528;21.204;2023-02-11T12:06:10;100493.41;;;2.99;100.00
22283;BME280;11310;51.528;21.204;2023-02-11T12:08:51;100504.66;;;3.00;100.00
22283;BME280;11310;51.528;21.204;2023-02-11T12:11:26;100523.63;;;3.02;100.00
22283;BME280;11310;51.528;21.204;2023-02-11T12:14:08;100527.91;;;3.04;100.00
22283;BME280;11310;51.528;21.204;2023-02-11T12:16:45;100530.50;;;3.06;100.00
22283;BME280;11310;51.528;21.204;2023-02-11T12:19:29;100528.78;;;3.05;100.00
22283;BME280;11310;51.528;21.204;2023-02-11T12:22:09;100523.56;;;3.08;100.00
22283;BME280;11310;51.528;21.204;2023-02-11T12:24:52;100535.66;;;3.09;100.00
22283;BME280;11310;51.528;21.204;2023-02-11T12:27:36;100520.09;;;3.09;100.00
22283;BME280;11310;51.528;21.204;2023-02-11T12:30:18;100533.94;;;3.09;100.00
22283;BME280;11310;51.528;21.204;2023-02-11T12:32:57;100535.66;;;3.09;100.00
22283;BME280;11310;51.528;21.204;2023-02-11T12:35:38;100540.84;;;3.09;100.00
22283;BME280;11310;51.528;21.204;2023-02-11T12:38:23;100535.66;;;3.09;100.00
22283;BME280;11310;51.528;21.204;2023-02-11T12:41:08;100535.66;;;3.09;100.00
22283;BME280;11310;51.528;21.204;2023-02-11T12:43:43;100526.16;;;3.08;100.00
22283;BME280;11310;51.528;21.204;2023-02-11T12:46:28;100526.16;;;3.08;100.00
22283;BME280;11310;51.528;21.204;2023-02-11T12:49:14;100520.13;;;3.06;100.00
22283;BME280;11310;51.528;21.204;2023-02-11T12:51:59;100529.63;;;3.07;100.00
22283;BME280;11310;51.528;21.204;2023-02-11T12:54:36;100512.38;;;3.07;100.00
22283;BME280;11310;51.528;21.204;2023-02-11T12:57:14;100525.28;;;3.09;100.00
22283;BME280;11310;51.528;21.204;2023-02-11T12:59:50;100522.72;;;3.07;100.00
22283;BME280;11310;51.528;21.204;2023-02-11T13:02:29;100517.50;;;3.09;100.00
22283;BME280;11310;51.528;21.204;2023-02-11T13:05:09;100520.09;;;3.09;100.00
22283;BME280;11310;51.528;21.204;2023-02-11T13:07:43;100511.47;;;3.10;100.00
22283;BME280;11310;51.528;21.204;2023-02-11T13:10:23;100513.19;;;3.11;100.00
22283;BME280;11310;51.528;21.204;2023-02-11T13:12:55;100507.13;;;3.09;100.00
22283;BME280;11310;51.528;21.204;2023-02-11T13:15:44;100503.69;;;3.11;100.00
22283;BME280;11310;51.528;21.204;2023-02-11T13:18:31;100495.94;;;3.10;100.00
22283;BME280;11310;51.528;21.204;2023-02-11T13:21:29;100491.59;;;3.10;100.00